sensor_id;sensor_type;location;lat;lon;timestamp;P1;durP1;ratioP1;P2;durP2;ratioP2
21215;SDS011;10765;50.954;5.322;2023-04-06T00:00:13;18.57;;;15.83;;
21215;SDS011;10765;50.954;5.322;2023-04-06T00:02:41;20.70;;;16.47;;
21215;SDS011;10765;50.954;5.322;2023-04-06T00:05:07;18.43;;;16.17;;
21215;SDS011;10765;50.954;5.322;2023-04-06T00:07:35;22.00;;;16.40;;
21215;SDS011;10765;50.954;5.322;2023-04-06T00:10:04;16.83;;;14.97;;
21215;SDS011;10765;50.954;5.322;2023-04-06T00:12:31;17.20;;;14.43;;
21215;SDS011;10765;50.954;5.322;2023-04-06T00:14:58;19.37;;;15.77;;
21215;SDS011;10765;50.954;5.322;2023-04-06T00:17:26;21.40;;;17.10;;
21215;SDS011;10765;50.954;5.322;2023-04-06T00:19:53;18.27;;;16.13;;
21215;SDS011;10765;50.954;5.322;2023-04-06T00:22:20;18.27;;;15.40;;
21215;SDS011;10765;50.954;5.322;2023-04-06T00:24:47;16.97;;;15.17;;
21215;SDS011;10765;50.954;5.322;2023-04-06T00:27:15;20.63;;;17.03;;
21215;SDS011;10765;50.954;5.322;2023-04-06T00:29:43;20.27;;;17.63;;
21215;SDS011;10765;50.954;5.322;2023-04-06T00:32:10;21.27;;;16.30;;
21215;SDS011;10765;50.954;5.322;2023-04-06T00:34:39;18.40;;;15.57;;
21215;SDS011;10765;50.954;5.322;2023-04-06T00:37:06;19.00;;;15.97;;
21215;SDS011;10765;50.954;5.322;2023-04-06T00:39:33;17.20;;;14.77;;
21215;SDS011;10765;50.954;5.322;2023-04-06T00:42:00;21.40;;;17.87;;
21215;SDS011;10765;50.954;5.322;2023-04-06T00:44:39;23.77;;;17.70;;
21215;SDS011;10765;50.954;5.322;2023-04-06T00:47:06;22.00;;;17.93;;
21215;SDS011;10765;50.954;5.322;2023-04-06T00:49:33;20.83;;;17.00;;
21215;SDS011;10765;50.954;5.322;2023-04-06T00:52:00;18.80;;;15.97;;
21215;SDS011;10765;50.954;5.322;2023-04-06T00:54:28;22.33;;;17.17;;
21215;SDS011;10765;50.954;5.322;2023-04-06T00:56:55;19.07;;;15.63;;
21215;SDS011;10765;50.954;5.322;2023-04-06T00:59:22;21.13;;;16.80;;
21215;SDS011;10765;50.954;5.322;2023-04-06T01:01:51;17.60;;;15.27;;
21215;SDS011;10765;50.954;5.322;2023-04-06T01:04:18;18.47;;;15.50;;
21215;SDS011;10765;50.954;5.322;2023-04-06T01:06:47;20.07;;;17.30;;
21215;SDS011;10765;50.954;5.322;2023-04-06T01:09:14;20.67;;;16.63;;
21215;SDS011;10765;50.954;5.322;2023-04-06T01:11:41;20.03;;;16.50;;
21215;SDS011;10765;50.954;5.322;2023-04-06T01:14:08;19.53;;;15.23;;
21215;SDS011;10765;50.954;5.322;2023-04-06T01:16:35;17.87;;;15.73;;
21215;SDS011;10765;50.954;5.322;2023-04-06T01:19:07;17.23;;;15.07;;
21215;SDS011;10765;50.954;5.322;2023-04-06T01:21:35;18.40;;;15.27;;
21215;SDS011;10765;50.954;5.322;2023-04-06T01:24:04;19.23;;;16.10;;
21215;SDS011;10765;50.954;5.322;2023-04-06T01:26:32;17.57;;;14.33;;
21215;SDS011;10765;50.954;5.322;2023-04-06T01:29:00;20.67;;;17.57;;
21215;SDS011;10765;50.954;5.322;2023-04-06T01:31:28;23.67;;;17.53;;
21215;SDS011;10765;50.954;5.322;2023-04-06T01:33:55;22.30;;;17.87;;
21215;SDS011;10765;50.954;5.322;2023-04-06T01:36:22;19.97;;;16.57;;
21215;SDS011;10765;50.954;5.322;2023-04-06T01:38:50;20.50;;;17.43;;
21215;SDS011;10765;50.954;5.322;2023-04-06T01:41:18;18.93;;;16.77;;
21215;SDS011;10765;50.954;5.322;2023-04-06T01:43:46;19.97;;;16.77;;
21215;SDS011;10765;50.954;5.322;2023-04-06T01:46:14;22.10;;;18.07;;
21215;SDS011;10765;50.954;5.322;2023-04-06T01:48:41;22.53;;;18.17;;
21215;SDS011;10765;50.954;5.322;2023-04-06T01:51:10;22.83;;;16.93;;
21215;SDS011;10765;50.954;5.322;2023-04-06T01:53:37;20.63;;;17.53;;
21215;SDS011;10765;50.954;5.322;2023-04-06T01:56:04;17.93;;;15.87;;
21215;SDS011;10765;50.954;5.322;2023-04-06T01:58:33;19.17;;;16.83;;
21215;SDS011;10765;50.954;5.322;2023-04-06T02:01:00;21.83;;;17.57;;
21215;SDS011;10765;50.954;5.322;2023-04-06T02:03:27;20.57;;;17.70;;
21215;SDS011;10765;50.954;5.322;2023-04-06T02:05:54;21.50;;;17.80;;
21215;SDS011;10765;50.954;5.322;2023-04-06T02:08:21;23.60;;;18.87;;
21215;SDS011;10765;50.954;5.322;2023-04-06T02:10:48;24.00;;;19.93;;
21215;SDS011;10765;50.954;5.322;2023-04-06T02:13:15;22.43;;;18.30;;
21215;SDS011;10765;50.954;5.322;2023-04-06T02:15:43;22.10;;;18.87;;
21215;SDS011;10765;50.954;5.322;2023-04-06T02:18:10;22.83;;;18.77;;
21215;SDS011;10765;50.954;5.322;2023-04-06T02:20:37;23.00;;;17.93;;
21215;SDS011;10765;50.954;5.322;2023-04-06T02:23:04;23.33;;;17.87;;
21215;SDS011;10765;50.954;5.322;2023-04-06T02:25:31;22.40;;;18.17;;
21215;SDS011;10765;50.954;5.322;2023-04-06T02:27:58;20.90;;;18.23;;
21215;SDS011;10765;50.954;5.322;2023-04-06T02:30:25;22.93;;;18.17;;
21215;SDS011;10765;50.954;5.322;2023-04-06T02:32:53;20.70;;;17.63;;
21215;SDS011;10765;50.954;5.322;2023-04-06T02:35:20;22.53;;;18.90;;
21215;SDS011;10765;50.954;5.322;2023-04-06T02:37:47;22.50;;;18.57;;
21215;SDS011;10765;50.954;5.322;2023-04-06T02:40:14;23.90;;;19.03;;
21215;SDS011;10765;50.954;5.322;2023-04-06T02:42:41;21.60;;;17.47;;
21215;SDS011;10765;50.954;5.322;2023-04-06T02:45:08;23.07;;;18.23;;
21215;SDS011;10765;50.954;5.322;2023-04-06T02:47:35;23.57;;;19.17;;
21215;SDS011;10765;50.954;5.322;2023-04-06T02:50:04;23.33;;;17.97;;
21215;SDS011;10765;50.954;5.322;2023-04-06T02:52:31;19.67;;;17.23;;
21215;SDS011;10765;50.954;5.322;2023-04-06T02:54:58;22.57;;;17.43;;
21215;SDS011;10765;50.954;5.322;2023-04-06T02:57:25;20.43;;;17.50;;
21215;SDS011;10765;50.954;5.322;2023-04-06T02:59:52;22.50;;;17.83;;
21215;SDS011;10765;50.954;5.322;2023-04-06T03:02:19;22.30;;;17.53;;
21215;SDS011;10765;50.954;5.322;2023-04-06T03:04:46;20.63;;;16.67;;
21215;SDS011;10765;50.954;5.322;2023-04-06T03:07:15;20.50;;;17.60;;
21215;SDS011;10765;50.954;5.322;2023-04-06T03:09:42;22.47;;;17.80;;
21215;SDS011;10765;50.954;5.322;2023-04-06T03:12:08;20.87;;;17.27;;
21215;SDS011;10765;50.954;5.322;2023-04-06T03:14:35;19.47;;;16.23;;
21215;SDS011;10765;50.954;5.322;2023-04-06T03:17:02;20.20;;;17.30;;
21215;SDS011;10765;50.954;5.322;2023-04-06T03:19:29;19.13;;;16.73;;
21215;SDS011;10765;50.954;5.322;2023-04-06T03:21:56;22.40;;;16.67;;
21215;SDS011;10765;50.954;5.322;2023-04-06T03:24:25;20.80;;;17.10;;
21215;SDS011;10765;50.954;5.322;2023-04-06T03:26:52;17.87;;;15.37;;
21215;SDS011;10765;50.954;5.322;2023-04-06T03:29:19;18.80;;;16.40;;
21215;SDS011;10765;50.954;5.322;2023-04-06T03:31:45;18.53;;;15.77;;
21215;SDS011;10765;50.954;5.322;2023-04-06T03:34:12;20.03;;;16.43;;
21215;SDS011;10765;50.954;5.322;2023-04-06T03:36:39;19.83;;;15.87;;
21215;SDS011;10765;50.954;5.322;2023-04-06T03:39:06;19.83;;;16.33;;
21215;SDS011;10765;50.954;5.322;2023-04-06T03:41:35;21.87;;;17.17;;
21215;SDS011;10765;50.954;5.322;2023-04-06T03:44:02;18.73;;;16.37;;
21215;SDS011;10765;50.954;5.322;2023-04-06T03:46:28;19.57;;;16.30;;
21215;SDS011;10765;50.954;5.322;2023-04-06T03:48:55;20.87;;;16.20;;
21215;SDS011;10765;50.954;5.322;2023-04-06T03:51:22;21.77;;;17.30;;
21215;SDS011;10765;50.954;5.322;2023-04-06T03:53:50;22.23;;;16.67;;
21215;SDS011;10765;50.954;5.322;2023-04-06T03:56:17;22.43;;;16.30;;
21215;SDS011;10765;50.954;5.322;2023-04-06T03:58:46;19.40;;;16.57;;
21215;SDS011;10765;50.954;5.322;2023-04-06T04:01:15;20.33;;;16.40;;
21215;SDS011;10765;50.954;5.322;2023-04-06T04:03:42;20.73;;;16.30;;
21215;SDS011;10765;50.954;5.322;2023-04-06T04:06:09;19.30;;;16.40;;
21215;SDS011;10765;50.954;5.322;2023-04-06T04:08:36;17.43;;;15.20;;
21215;SDS011;10765;50.954;5.322;2023-04-06T04:11:03;22.33;;;15.83;;
21215;SDS011;10765;50.954;5.322;2023-04-06T04:13:30;17.40;;;14.90;;
21215;SDS011;10765;50.954;5.322;2023-04-06T04:15:58;21.70;;;16.60;;
21215;SDS011;10765;50.954;5.322;2023-04-06T04:18:26;19.37;;;15.93;;
21215;SDS011;10765;50.954;5.322;2023-04-06T04:20:52;19.50;;;16.27;;
21215;SDS011;10765;50.954;5.322;2023-04-06T04:23:19;18.27;;;15.13;;
21215;SDS011;10765;50.954;5.322;2023-04-06T04:25:46;18.97;;;15.67;;
21215;SDS011;10765;50.954;5.322;2023-04-06T04:28:13;20.80;;;15.20;;
21215;SDS011;10765;50.954;5.322;2023-04-06T04:30:40;20.83;;;16.27;;
21215;SDS011;10765;50.954;5.322;2023-04-06T04:33:08;18.60;;;14.63;;
21215;SDS011;10765;50.954;5.322;2023-04-06T04:35:35;16.07;;;14.27;;
21215;SDS011;10765;50.954;5.322;2023-04-06T04:38:02;18.47;;;15.20;;
21215;SDS011;10765;50.954;5.322;2023-04-06T04:40:30;17.53;;;14.87;;
21215;SDS011;10765;50.954;5.322;2023-04-06T04:42:57;16.03;;;14.33;;
21215;SDS011;10765;50.954;5.322;2023-04-06T04:45:24;17.80;;;13.97;;
21215;SDS011;10765;50.954;5.322;2023-04-06T04:47:51;18.23;;;15.00;;
21215;SDS011;10765;50.954;5.322;2023-04-06T04:50:19;19.67;;;14.63;;
21215;SDS011;10765;50.954;5.322;2023-04-06T04:52:46;18.67;;;15.40;;
21215;SDS011;10765;50.954;5.322;2023-04-06T04:55:13;19.67;;;15.27;;
21215;SDS011;10765;50.954;5.322;2023-04-06T04:57:40;17.73;;;15.37;;
21215;SDS011;10765;50.954;5.322;2023-04-06T05:00:07;18.43;;;14.07;;
21215;SDS011;10765;50.954;5.322;2023-04-06T05:02:35;19.43;;;16.03;;
21215;SDS011;10765;50.954;5.322;2023-04-06T05:05:01;17.90;;;14.70;;
21215;SDS011;10765;50.954;5.322;2023-04-06T05:07:30;18.33;;;15.30;;
21215;SDS011;10765;50.954;5.322;2023-04-06T05:09:57;18.40;;;14.97;;
21215;SDS011;10765;50.954;5.322;2023-04-06T05:12:24;18.77;;;16.37;;
21215;SDS011;10765;50.954;5.322;2023-04-06T05:14:53;19.50;;;15.03;;
21215;SDS011;10765;50.954;5.322;2023-04-06T05:17:20;17.63;;;15.23;;
21215;SDS011;10765;50.954;5.322;2023-04-06T05:19:47;18.07;;;14.57;;
21215;SDS011;10765;50.954;5.322;2023-04-06T05:22:14;18.33;;;14.30;;
21215;SDS011;10765;50.954;5.322;2023-04-06T05:24:44;18.47;;;14.87;;
21215;SDS011;10765;50.954;5.322;2023-04-06T05:27:11;18.53;;;14.90;;
21215;SDS011;10765;50.954;5.322;2023-04-06T05:29:38;19.97;;;15.43;;
21215;SDS011;10765;50.954;5.322;2023-04-06T05:32:05;17.17;;;14.47;;
21215;SDS011;10765;50.954;5.322;2023-04-06T05:34:32;17.70;;;14.37;;
21215;SDS011;10765;50.954;5.322;2023-04-06T05:36:59;18.37;;;14.97;;
21215;SDS011;10765;50.954;5.322;2023-04-06T05:39:26;18.33;;;15.23;;
21215;SDS011;10765;50.954;5.322;2023-04-06T05:41:54;18.17;;;16.23;;
21215;SDS011;10765;50.954;5.322;2023-04-06T05:44:21;21.10;;;16.33;;
21215;SDS011;10765;50.954;5.322;2023-04-06T05:46:48;19.83;;;16.17;;
21215;SDS011;10765;50.954;5.322;2023-04-06T05:49:17;16.83;;;14.80;;
21215;SDS011;10765;50.954;5.322;2023-04-06T05:51:44;21.27;;;16.43;;
21215;SDS011;10765;50.954;5.322;2023-04-06T05:54:11;19.03;;;16.27;;
21215;SDS011;10765;50.954;5.322;2023-04-06T05:56:38;20.70;;;16.43;;
21215;SDS011;10765;50.954;5.322;2023-04-06T05:59:08;20.67;;;16.97;;
21215;SDS011;10765;50.954;5.322;2023-04-06T06:01:35;20.50;;;15.37;;
21215;SDS011;10765;50.954;5.322;2023-04-06T06:04:02;18.07;;;15.10;;
21215;SDS011;10765;50.954;5.322;2023-04-06T06:06:29;18.30;;;15.20;;
21215;SDS011;10765;50.954;5.322;2023-04-06T06:08:56;17.97;;;15.43;;
21215;SDS011;10765;50.954;5.322;2023-04-06T06:11:25;18.27;;;15.37;;
21215;SDS011;10765;50.954;5.322;2023-04-06T06:13:52;21.60;;;15.80;;
21215;SDS011;10765;50.954;5.322;2023-04-06T06:16:21;18.43;;;15.10;;
21215;SDS011;10765;50.954;5.322;2023-04-06T06:18:48;19.87;;;16.03;;
21215;SDS011;10765;50.954;5.322;2023-04-06T06:21:15;19.80;;;15.70;;
21215;SDS011;10765;50.954;5.322;2023-04-06T06:23:42;18.00;;;15.93;;
21215;SDS011;10765;50.954;5.322;2023-04-06T06:26:09;20.33;;;16.10;;
21215;SDS011;10765;50.954;5.322;2023-04-06T06:28:36;23.20;;;16.83;;
21215;SDS011;10765;50.954;5.322;2023-04-06T06:31:03;22.53;;;17.07;;
21215;SDS011;10765;50.954;5.322;2023-04-06T06:33:31;18.70;;;16.33;;
21215;SDS011;10765;50.954;5.322;2023-04-06T06:35:58;22.20;;;16.70;;
21215;SDS011;10765;50.954;5.322;2023-04-06T06:38:25;19.23;;;16.93;;
21215;SDS011;10765;50.954;5.322;2023-04-06T06:40:52;18.97;;;15.93;;
21215;SDS011;10765;50.954;5.322;2023-04-06T06:43:19;18.80;;;15.60;;
21215;SDS011;10765;50.954;5.322;2023-04-06T06:45:46;16.67;;;14.87;;
21215;SDS011;10765;50.954;5.322;2023-04-06T06:48:13;20.43;;;15.33;;
21215;SDS011;10765;50.954;5.322;2023-04-06T06:50:41;18.40;;;15.00;;
21215;SDS011;10765;50.954;5.322;2023-04-06T06:53:08;17.07;;;14.17;;
21215;SDS011;10765;50.954;5.322;2023-04-06T06:55:36;16.33;;;13.17;;
21215;SDS011;10765;50.954;5.322;2023-04-06T06:58:03;19.63;;;14.10;;
21215;SDS011;10765;50.954;5.322;2023-04-06T07:00:31;18.27;;;13.47;;
21215;SDS011;10765;50.954;5.322;2023-04-06T07:02:58;16.47;;;13.70;;
21215;SDS011;10765;50.954;5.322;2023-04-06T07:05:25;14.80;;;12.37;;
21215;SDS011;10765;50.954;5.322;2023-04-06T07:07:53;14.60;;;12.67;;
21215;SDS011;10765;50.954;5.322;2023-04-06T07:10:21;16.73;;;12.00;;
21215;SDS011;10765;50.954;5.322;2023-04-06T07:12:48;15.47;;;12.17;;
21215;SDS011;10765;50.954;5.322;2023-04-06T07:15:15;16.60;;;12.20;;
21215;SDS011;10765;50.954;5.322;2023-04-06T07:17:43;17.27;;;12.53;;
21215;SDS011;10765;50.954;5.322;2023-04-06T07:20:10;14.47;;;11.27;;
21215;SDS011;10765;50.954;5.322;2023-04-06T07:22:37;14.57;;;11.30;;
21215;SDS011;10765;50.954;5.322;2023-04-06T07:25:06;12.70;;;11.17;;
21215;SDS011;10765;50.954;5.322;2023-04-06T07:27:34;15.13;;;10.87;;
21215;SDS011;10765;50.954;5.322;2023-04-06T07:30:01;12.30;;;11.00;;
21215;SDS011;10765;50.954;5.322;2023-04-06T07:32:28;15.83;;;11.23;;
21215;SDS011;10765;50.954;5.322;2023-04-06T07:34:56;11.97;;;10.57;;
21215;SDS011;10765;50.954;5.322;2023-04-06T07:37:23;13.53;;;11.00;;
21215;SDS011;10765;50.954;5.322;2023-04-06T07:39:50;13.10;;;10.43;;
21215;SDS011;10765;50.954;5.322;2023-04-06T07:42:18;15.17;;;12.00;;
21215;SDS011;10765;50.954;5.322;2023-04-06T07:44:45;12.80;;;10.30;;
21215;SDS011;10765;50.954;5.322;2023-04-06T07:47:12;13.67;;;11.40;;
21215;SDS011;10765;50.954;5.322;2023-04-06T07:49:41;13.80;;;11.33;;
21215;SDS011;10765;50.954;5.322;2023-04-06T07:52:07;14.03;;;11.27;;
21215;SDS011;10765;50.954;5.322;2023-04-06T07:54:34;12.50;;;11.13;;
21215;SDS011;10765;50.954;5.322;2023-04-06T07:57:01;12.77;;;10.90;;
21215;SDS011;10765;50.954;5.322;2023-04-06T07:59:30;14.67;;;10.50;;
21215;SDS011;10765;50.954;5.322;2023-04-06T08:01:57;14.10;;;11.00;;
21215;SDS011;10765;50.954;5.322;2023-04-06T08:04:24;13.23;;;10.93;;
21215;SDS011;10765;50.954;5.322;2023-04-06T08:06:51;12.40;;;11.00;;
21215;SDS011;10765;50.954;5.322;2023-04-06T08:09:17;12.80;;;10.50;;
21215;SDS011;10765;50.954;5.322;2023-04-06T08:11:44;14.67;;;11.07;;
21215;SDS011;10765;50.954;5.322;2023-04-06T08:14:13;14.00;;;10.80;;
21215;SDS011;10765;50.954;5.322;2023-04-06T08:16:42;14.00;;;10.83;;
21215;SDS011;10765;50.954;5.322;2023-04-06T08:19:09;18.47;;;10.83;;
21215;SDS011;10765;50.954;5.322;2023-04-06T08:21:36;12.30;;;10.70;;
21215;SDS011;10765;50.954;5.322;2023-04-06T08:24:04;13.47;;;10.30;;
21215;SDS011;10765;50.954;5.322;2023-04-06T08:26:32;12.17;;;10.70;;
21215;SDS011;10765;50.954;5.322;2023-04-06T08:28:59;16.57;;;11.10;;
21215;SDS011;10765;50.954;5.322;2023-04-06T08:31:26;13.13;;;11.20;;
21215;SDS011;10765;50.954;5.322;2023-04-06T08:33:54;13.33;;;10.90;;
21215;SDS011;10765;50.954;5.322;2023-04-06T08:36:21;15.27;;;11.13;;
21215;SDS011;10765;50.954;5.322;2023-04-06T08:38:48;18.27;;;11.50;;
21215;SDS011;10765;50.954;5.322;2023-04-06T08:41:16;13.47;;;11.10;;
21215;SDS011;10765;50.954;5.322;2023-04-06T08:43:44;13.60;;;11.23;;
21215;SDS011;10765;50.954;5.322;2023-04-06T08:46:13;12.43;;;10.57;;
21215;SDS011;10765;50.954;5.322;2023-04-06T08:48:42;13.27;;;11.07;;
21215;SDS011;10765;50.954;5.322;2023-04-06T08:51:11;11.90;;;10.27;;
21215;SDS011;10765;50.954;5.322;2023-04-06T08:53:38;14.07;;;10.23;;
21215;SDS011;10765;50.954;5.322;2023-04-06T08:56:05;13.60;;;10.43;;
21215;SDS011;10765;50.954;5.322;2023-04-06T08:58:34;14.60;;;10.77;;
21215;SDS011;10765;50.954;5.322;2023-04-06T09:01:04;12.37;;;9.60;;
21215;SDS011;10765;50.954;5.322;2023-04-06T09:03:34;11.30;;;9.63;;
21215;SDS011;10765;50.954;5.322;2023-04-06T09:06:04;13.63;;;10.03;;
21215;SDS011;10765;50.954;5.322;2023-04-06T09:08:33;12.13;;;9.40;;
21215;SDS011;10765;50.954;5.322;2023-04-06T09:11:00;10.87;;;9.10;;
21215;SDS011;10765;50.954;5.322;2023-04-06T09:13:28;12.83;;;9.77;;
21215;SDS011;10765;50.954;5.322;2023-04-06T09:15:58;12.07;;;9.00;;
21215;SDS011;10765;50.954;5.322;2023-04-06T09:18:29;10.30;;;9.20;;
21215;SDS011;10765;50.954;5.322;2023-04-06T09:20:58;10.30;;;8.57;;
21215;SDS011;10765;50.954;5.322;2023-04-06T09:23:26;16.43;;;9.30;;
21215;SDS011;10765;50.954;5.322;2023-04-06T09:26:05;11.77;;;9.23;;
21215;SDS011;10765;50.954;5.322;2023-04-06T09:28:43;10.40;;;8.80;;
21215;SDS011;10765;50.954;5.322;2023-04-06T09:31:11;8.00;;;6.87;;
21215;SDS011;10765;50.954;5.322;2023-04-06T09:33:40;8.87;;;7.90;;
21215;SDS011;10765;50.954;5.322;2023-04-06T09:36:08;13.33;;;7.73;;
21215;SDS011;10765;50.954;5.322;2023-04-06T09:38:39;9.23;;;7.50;;
21215;SDS011;10765;50.954;5.322;2023-04-06T09:41:22;7.63;;;6.57;;
21215;SDS011;10765;50.954;5.322;2023-04-06T09:43:52;8.33;;;7.33;;
21215;SDS011;10765;50.954;5.322;2023-04-06T09:46:29;8.33;;;6.97;;
21215;SDS011;10765;50.954;5.322;2023-04-06T09:48:58;8.27;;;6.93;;
21215;SDS011;10765;50.954;5.322;2023-04-06T09:51:25;9.57;;;7.13;;
21215;SDS011;10765;50.954;5.322;2023-04-06T09:53:55;11.87;;;7.63;;
21215;SDS011;10765;50.954;5.322;2023-04-06T09:56:27;8.70;;;7.27;;
21215;SDS011;10765;50.954;5.322;2023-04-06T09:59:00;10.10;;;7.67;;
21215;SDS011;10765;50.954;5.322;2023-04-06T10:01:32;9.83;;;8.23;;
21215;SDS011;10765;50.954;5.322;2023-04-06T10:04:05;9.23;;;8.20;;
21215;SDS011;10765;50.954;5.322;2023-04-06T10:06:39;11.20;;;8.20;;
21215;SDS011;10765;50.954;5.322;2023-04-06T10:09:07;11.23;;;8.63;;
21215;SDS011;10765;50.954;5.322;2023-04-06T10:11:35;8.50;;;7.70;;
21215;SDS011;10765;50.954;5.322;2023-04-06T10:14:03;11.30;;;8.47;;
21215;SDS011;10765;50.954;5.322;2023-04-06T10:16:30;9.20;;;8.00;;
21215;SDS011;10765;50.954;5.322;2023-04-06T10:18:59;8.23;;;7.40;;
21215;SDS011;10765;50.954;5.322;2023-04-06T10:21:30;9.23;;;8.20;;
21215;SDS011;10765;50.954;5.322;2023-04-06T10:24:00;9.07;;;8.03;;
21215;SDS011;10765;50.954;5.322;2023-04-06T10:26:28;9.60;;;8.60;;
21215;SDS011;10765;50.954;5.322;2023-04-06T10:29:02;9.13;;;8.10;;
21215;SDS011;10765;50.954;5.322;2023-04-06T10:31:30;9.17;;;8.27;;
21215;SDS011;10765;50.954;5.322;2023-04-06T10:33:57;10.90;;;8.33;;
21215;SDS011;10765;50.954;5.322;2023-04-06T10:36:26;9.70;;;8.80;;
21215;SDS011;10765;50.954;5.322;2023-04-06T10:38:53;9.93;;;8.93;;
21215;SDS011;10765;50.954;5.322;2023-04-06T10:41:22;10.50;;;9.00;;
21215;SDS011;10765;50.954;5.322;2023-04-06T10:43:54;9.87;;;8.87;;
21215;SDS011;10765;50.954;5.322;2023-04-06T10:46:26;9.60;;;8.60;;
21215;SDS011;10765;50.954;5.322;2023-04-06T10:48:53;9.80;;;8.43;;
21215;SDS011;10765;50.954;5.322;2023-04-06T10:51:23;9.20;;;8.30;;
21215;SDS011;10765;50.954;5.322;2023-04-06T10:53:53;9.67;;;8.67;;
21215;SDS011;10765;50.954;5.322;2023-04-06T10:56:21;10.03;;;8.30;;
21215;SDS011;10765;50.954;5.322;2023-04-06T10:58:51;7.97;;;7.00;;
21215;SDS011;10765;50.954;5.322;2023-04-06T11:01:21;8.27;;;7.33;;
21215;SDS011;10765;50.954;5.322;2023-04-06T11:03:52;7.33;;;6.63;;
21215;SDS011;10765;50.954;5.322;2023-04-06T11:06:21;7.83;;;7.03;;
21215;SDS011;10765;50.954;5.322;2023-04-06T11:08:49;7.73;;;6.93;;
21215;SDS011;10765;50.954;5.322;2023-04-06T11:11:16;8.70;;;7.73;;
21215;SDS011;10765;50.954;5.322;2023-04-06T11:13:45;8.23;;;7.20;;
21215;SDS011;10765;50.954;5.322;2023-04-06T11:16:14;8.40;;;7.50;;
21215;SDS011;10765;50.954;5.322;2023-04-06T11:18:54;7.63;;;6.93;;
21215;SDS011;10765;50.954;5.322;2023-04-06T11:21:31;7.87;;;7.07;;
21215;SDS011;10765;50.954;5.322;2023-04-06T11:24:05;8.63;;;7.10;;
21215;SDS011;10765;50.954;5.322;2023-04-06T11:26:39;10.13;;;7.10;;
21215;SDS011;10765;50.954;5.322;2023-04-06T11:29:08;8.80;;;7.03;;
21215;SDS011;10765;50.954;5.322;2023-04-06T11:31:39;8.67;;;7.70;;
21215;SDS011;10765;50.954;5.322;2023-04-06T11:34:12;8.90;;;8.00;;
21215;SDS011;10765;50.954;5.322;2023-04-06T11:36:40;8.23;;;7.33;;
21215;SDS011;10765;50.954;5.322;2023-04-06T11:39:08;7.80;;;7.00;;
21215;SDS011;10765;50.954;5.322;2023-04-06T11:41:36;7.53;;;6.60;;
21215;SDS011;10765;50.954;5.322;2023-04-06T11:44:03;8.57;;;7.33;;
21215;SDS011;10765;50.954;5.322;2023-04-06T11:46:31;8.00;;;7.20;;
21215;SDS011;10765;50.954;5.322;2023-04-06T11:48:59;8.03;;;6.77;;
21215;SDS011;10765;50.954;5.322;2023-04-06T11:51:28;7.40;;;6.60;;
21215;SDS011;10765;50.954;5.322;2023-04-06T11:53:55;7.87;;;7.07;;
21215;SDS011;10765;50.954;5.322;2023-04-06T11:56:22;9.07;;;7.93;;
21215;SDS011;10765;50.954;5.322;2023-04-06T11:58:57;8.73;;;7.83;;
21215;SDS011;10765;50.954;5.322;2023-04-06T12:01:25;7.93;;;7.13;;
21215;SDS011;10765;50.954;5.322;2023-04-06T12:03:52;7.80;;;6.93;;
21215;SDS011;10765;50.954;5.322;2023-04-06T12:06:20;9.30;;;7.40;;
21215;SDS011;10765;50.954;5.322;2023-04-06T12:08:48;7.90;;;7.03;;
21215;SDS011;10765;50.954;5.322;2023-04-06T12:11:15;8.57;;;7.70;;
21215;SDS011;10765;50.954;5.322;2023-04-06T12:13:43;7.80;;;7.00;;
21215;SDS011;10765;50.954;5.322;2023-04-06T12:16:10;8.30;;;6.57;;
21215;SDS011;10765;50.954;5.322;2023-04-06T12:18:37;8.73;;;7.13;;
21215;SDS011;10765;50.954;5.322;2023-04-06T12:21:04;9.87;;;7.40;;
21215;SDS011;10765;50.954;5.322;2023-04-06T12:23:31;8.57;;;7.60;;
21215;SDS011;10765;50.954;5.322;2023-04-06T12:25:59;8.03;;;7.23;;
21215;SDS011;10765;50.954;5.322;2023-04-06T12:28:27;7.57;;;6.73;;
21215;SDS011;10765;50.954;5.322;2023-04-06T12:30:54;8.47;;;7.43;;
21215;SDS011;10765;50.954;5.322;2023-04-06T12:33:21;10.03;;;8.30;;
21215;SDS011;10765;50.954;5.322;2023-04-06T12:35:48;11.83;;;8.30;;
21215;SDS011;10765;50.954;5.322;2023-04-06T12:38:15;8.77;;;7.93;;
21215;SDS011;10765;50.954;5.322;2023-04-06T12:40:42;9.00;;;8.10;;
21215;SDS011;10765;50.954;5.322;2023-04-06T12:43:11;9.00;;;8.10;;
21215;SDS011;10765;50.954;5.322;2023-04-06T12:45:38;7.93;;;7.13;;
21215;SDS011;10765;50.954;5.322;2023-04-06T12:48:06;8.03;;;7.23;;
21215;SDS011;10765;50.954;5.322;2023-04-06T12:50:33;8.90;;;8.00;;
21215;SDS011;10765;50.954;5.322;2023-04-06T12:53:00;10.03;;;7.93;;
21215;SDS011;10765;50.954;5.322;2023-04-06T12:55:29;8.77;;;7.63;;
21215;SDS011;10765;50.954;5.322;2023-04-06T12:57:59;10.10;;;8.37;;
21215;SDS011;10765;50.954;5.322;2023-04-06T13:00:27;9.40;;;8.43;;
21215;SDS011;10765;50.954;5.322;2023-04-06T13:02:55;10.37;;;9.27;;
21215;SDS011;10765;50.954;5.322;2023-04-06T13:05:22;10.37;;;9.27;;
21215;SDS011;10765;50.954;5.322;2023-04-06T13:07:49;10.80;;;9.00;;
21215;SDS011;10765;50.954;5.322;2023-04-06T13:10:16;9.57;;;8.57;;
21215;SDS011;10765;50.954;5.322;2023-04-06T13:12:43;10.10;;;9.10;;
21215;SDS011;10765;50.954;5.322;2023-04-06T13:15:10;9.70;;;8.33;;
21215;SDS011;10765;50.954;5.322;2023-04-06T13:17:39;9.07;;;8.17;;
21215;SDS011;10765;50.954;5.322;2023-04-06T13:20:06;9.23;;;8.33;;
21215;SDS011;10765;50.954;5.322;2023-04-06T13:22:33;8.60;;;7.77;;
21215;SDS011;10765;50.954;5.322;2023-04-06T13:25:00;9.13;;;7.83;;
21215;SDS011;10765;50.954;5.322;2023-04-06T13:27:27;9.93;;;8.63;;
21215;SDS011;10765;50.954;5.322;2023-04-06T13:29:58;8.77;;;7.43;;
21215;SDS011;10765;50.954;5.322;2023-04-06T13:32:25;8.73;;;7.80;;
21215;SDS011;10765;50.954;5.322;2023-04-06T13:34:55;10.13;;;8.70;;
21215;SDS011;10765;50.954;5.322;2023-04-06T13:37:23;8.60;;;7.70;;
21215;SDS011;10765;50.954;5.322;2023-04-06T13:39:50;9.47;;;8.47;;
21215;SDS011;10765;50.954;5.322;2023-04-06T13:42:17;8.80;;;7.93;;
21215;SDS011;10765;50.954;5.322;2023-04-06T13:44:45;8.93;;;8.20;;
21215;SDS011;10765;50.954;5.322;2023-04-06T13:47:12;8.40;;;7.60;;
21215;SDS011;10765;50.954;5.322;2023-04-06T13:49:40;9.37;;;8.27;;
21215;SDS011;10765;50.954;5.322;2023-04-06T13:52:08;9.03;;;8.20;;
21215;SDS011;10765;50.954;5.322;2023-04-06T13:54:36;8.80;;;8.00;;
21215;SDS011;10765;50.954;5.322;2023-04-06T13:57:03;10.63;;;8.00;;
21215;SDS011;10765;50.954;5.322;2023-04-06T13:59:33;8.37;;;7.53;;
21215;SDS011;10765;50.954;5.322;2023-04-06T14:02:00;9.03;;;8.13;;
21215;SDS011;10765;50.954;5.322;2023-04-06T14:04:28;8.07;;;7.13;;
21215;SDS011;10765;50.954;5.322;2023-04-06T14:06:55;8.00;;;7.17;;
21215;SDS011;10765;50.954;5.322;2023-04-06T14:09:23;8.67;;;7.83;;
21215;SDS011;10765;50.954;5.322;2023-04-06T14:11:50;8.33;;;7.57;;
21215;SDS011;10765;50.954;5.322;2023-04-06T14:14:18;7.83;;;7.10;;
21215;SDS011;10765;50.954;5.322;2023-04-06T14:16:46;9.63;;;8.43;;
21215;SDS011;10765;50.954;5.322;2023-04-06T14:19:15;8.73;;;7.93;;
21215;SDS011;10765;50.954;5.322;2023-04-06T14:21:43;8.87;;;7.97;;
21215;SDS011;10765;50.954;5.322;2023-04-06T14:24:11;8.50;;;7.53;;
21215;SDS011;10765;50.954;5.322;2023-04-06T14:26:40;8.90;;;8.00;;
21215;SDS011;10765;50.954;5.322;2023-04-06T14:29:08;9.10;;;8.30;;
21215;SDS011;10765;50.954;5.322;2023-04-06T14:31:35;9.77;;;8.83;;
21215;SDS011;10765;50.954;5.322;2023-04-06T14:34:03;9.07;;;8.17;;